Time;durP1;ratioP1;P1;durP2;ratioP2;P2;SDS_P1;SDS_P2;PMS_P1;PMS_P2;Temp;Humidity;BMP_temperature;BMP_pressure;BME280_temperature;BME280_humidity;BME280_pressure;Samples;Min_cycle;Max_cycle;Signal;HPM_P1;HPM_P2
2022/07/09 00:00:26;;;;;;;3.58;2.08;;;;;;;;;;5052968;28;20204;-82
2022/07/09 00:02:52;;;;;;;3.03;2.10;;;;;;;;;;5053689;28;20541;-82
2022/07/09 00:05:18;;;;;;;3.40;1.83;;;;;;;;;;5053432;28;20250;-82
2022/07/09 00:07:43;;;;;;;3.83;2.75;;;14.90;99.90;;;;;;5053441;28;20274;-82
2022/07/09 00:10:10;;;;;;;2.25;1.90;;;15.10;99.90;;;;;;5053080;28;20609;-82
2022/07/09 00:12:36;;;;;;;2.75;1.80;;;15.20;99.90;;;;;;5053166;28;20183;-82
2022/07/09 00:15:02;;;;;;;2.03;1.75;;;;;;;;;;5053315;28;20225;-82
2022/07/09 00:17:29;;;;;;;3.65;1.70;;;;;;;;;;5053175;28;20693;-83
2022/07/09 00:19:56;;;;;;;3.53;2.47;;;;;;;;;;5053441;28;20290;-82
2022/07/09 00:22:21;;;;;;;2.20;1.85;;;15.10;99.90;;;;;;5053065;28;20180;-83
2022/07/09 00:24:47;;;;;;;2.05;1.38;;;;;;;;;;5053401;28;20284;-82
2022/07/09 00:27:13;;;;;;;2.20;2.00;;;;;;;;;;5053227;28;20613;-83
2022/07/09 00:29:39;;;;;;;2.55;1.90;;;15.30;99.90;;;;;;5052644;28;20194;-82
2022/07/09 00:32:05;;;;;;;1.88;1.55;;;15.30;99.90;;;;;;5053035;28;20171;-82
2022/07/09 00:34:32;;;;;;;6.20;1.50;;;;;;;;;;5035109;28;20256;-82
2022/07/09 00:36:57;;;;;;;1.20;1.10;;;14.90;99.90;;;;;;5053108;28;20203;-83
2022/07/09 00:39:23;;;;;;;1.83;1.58;;;;;;;;;;5052882;28;20203;-83
2022/07/09 00:41:49;;;;;;;1.85;1.42;;;15.20;99.90;;;;;;5052973;28;20180;-83
2022/07/09 00:44:14;;;;;;;1.75;1.65;;;15.20;99.90;;;;;;5053001;28;20198;-83
2022/07/09 00:46:40;;;;;;;2.03;1.58;;;15.20;99.90;;;;;;5052766;28;20207;-82
2022/07/09 00:49:06;;;;;;;1.55;1.30;;;15.10;99.90;;;;;;5053064;28;20537;-82
2022/07/09 00:51:32;;;;;;;2.10;1.70;;;15.20;99.90;;;;;;5035116;28;20207;-83
2022/07/09 00:53:59;;;;;;;1.52;1.42;;;15.20;99.90;;;;;;5052884;28;20183;-82
2022/07/09 00:56:27;;;;;;;1.52;1.40;;;15.20;99.90;;;;;;5052489;28;20539;-84
2022/07/09 00:58:53;;;;;;;6.30;1.95;;;15.10;99.90;;;;;;5054011;28;20194;-82
2022/07/09 01:01:19;;;;;;;1.70;1.20;;;15.10;99.90;;;;;;5052980;28;20207;-82
2022/07/09 01:03:44;;;;;;;1.98;1.70;;;15.10;99.90;;;;;;5052769;28;20229;-82
2022/07/09 01:06:10;;;;;;;2.47;1.55;;;15.10;99.90;;;;;;5038516;28;20184;-83
2022/07/09 01:08:36;;;;;;;1.55;1.45;;;15.10;99.90;;;;;;5038715;28;20180;-80
2022/07/09 01:11:02;;;;;;;1.67;1.40;;;15.10;99.90;;;;;;5039049;28;20226;-82
2022/07/09 01:13:27;;;;;;;1.33;1.20;;;15.00;99.90;;;;;;5056209;28;20637;-83
2022/07/09 01:15:53;;;;;;;2.35;1.65;;;15.10;99.90;;;;;;5055967;28;20229;-83
2022/07/09 01:18:19;;;;;;;2.03;1.70;;;15.10;99.90;;;;;;5056279;28;20180;-82
2022/07/09 01:20:45;;;;;;;3.20;1.60;;;15.00;99.90;;;;;;5055685;28;20715;-83
2022/07/09 01:23:11;;;;;;;3.65;2.00;;;15.00;99.90;;;;;;5055793;28;20227;-82
2022/07/09 01:25:37;;;;;;;2.22;1.80;;;15.00;99.90;;;;;;5055595;28;20180;-83
2022/07/09 01:28:05;;;;;;;4.65;1.50;;;14.90;99.90;;;;;;5055634;28;20214;-83
2022/07/09 01:30:32;;;;;;;3.42;1.73;;;14.90;99.90;;;;;;5055445;28;20210;-83
2022/07/09 01:32:58;;;;;;;3.38;1.88;;;14.90;99.90;;;;;;5055924;28;20180;-83
2022/07/09 01:35:24;;;;;;;2.58;1.65;;;15.00;99.90;;;;;;5037902;28;20225;-82
2022/07/09 01:37:50;;;;;;;2.65;1.73;;;14.90;99.90;;;;;;5055302;28;20190;-83
2022/07/09 01:40:16;;;;;;;2.38;1.60;;;14.80;99.90;;;;;;5042799;28;20204;-83
2022/07/09 01:42:42;;;;;;;2.72;1.80;;;14.90;99.90;;;;;;5017915;28;20207;-84
2022/07/09 01:45:09;;;;;;;2.08;1.88;;;14.90;99.90;;;;;;5043067;28;20710;-83
2022/07/09 01:47:34;;;;;;;2.33;1.88;;;14.80;99.90;;;;;;5043622;28;20218;-83
2022/07/09 01:50:00;;;;;;;2.00;1.77;;;14.80;99.90;;;;;;5041897;28;20219;-82
2022/07/09 01:52:26;;;;;;;2.38;2.17;;;14.80;99.90;;;;;;5025533;28;20544;-82
2022/07/09 01:54:51;;;;;;;2.08;1.70;;;14.70;99.90;;;;;;5031603;28;20187;-83
2022/07/09 01:57:17;;;;;;;2.83;1.92;;;14.70;99.90;;;;;;5055867;28;20263;-82
2022/07/09 01:59:43;;;;;;;2.05;1.65;;;14.70;99.90;;;;;;5055533;28;20560;-82
2022/07/09 02:02:08;;;;;;;2.40;1.92;;;14.70;99.90;;;;;;5055503;28;20207;-83
2022/07/09 02:04:34;;;;;;;1.70;1.60;;;14.60;99.90;;;;;;5055246;28;20183;-84
2022/07/09 02:06:59;;;;;;;3.38;1.92;;;14.70;99.90;;;;;;5055689;28;20613;-83
2022/07/09 02:09:25;;;;;;;9.35;2.17;;;14.60;99.90;;;;;;5038566;28;20207;-82
2022/07/09 02:11:51;;;;;;;3.15;2.50;;;14.60;99.90;;;;;;5055525;28;20263;-82
2022/07/09 02:14:16;;;;;;;5.10;1.83;;;14.50;99.90;;;;;;5056282;28;20180;-82
2022/07/09 02:16:42;;;;;;;3.38;1.92;;;14.50;99.90;;;;;;5054419;28;20175;-82
2022/07/09 02:19:08;;;;;;;3.17;2.17;;;14.50;99.90;;;;;;5059745;28;20228;-81
2022/07/09 02:21:34;;;;;;;3.80;1.98;;;14.40;99.90;;;;;;5046816;28;20285;-82
2022/07/09 02:23:59;;;;;;;1.85;1.67;;;14.50;99.90;;;;;;5062440;28;20626;-82
2022/07/09 02:26:29;;;;;;;2.45;1.63;;;14.40;99.90;;;;;;5063631;28;20660;-82
2022/07/09 02:28:55;;;;;;;3.40;2.42;;;14.40;99.90;;;;;;5061886;28;20180;-82
2022/07/09 02:31:21;;;;;;;3.28;2.38;;;14.40;99.90;;;;;;5058917;28;20180;-82
2022/07/09 02:33:47;;;;;;;3.60;2.22;;;14.30;99.90;;;;;;5075290;28;20194;-83
2022/07/09 02:36:12;;;;;;;2.20;1.77;;;14.30;99.90;;;;;;5079746;28;20164;-83
2022/07/09 02:38:38;;;;;;;2.97;2.35;;;14.30;99.90;;;;;;5079338;28;20164;-85
2022/07/09 02:41:04;;;;;;;2.72;1.88;;;14.30;99.90;;;;;;5062280;28;20212;-83
2022/07/09 02:43:30;;;;;;;3.75;2.63;;;14.30;99.90;;;;;;5063363;28;20259;-82
2022/07/09 02:45:56;;;;;;;2.97;2.30;;;14.30;99.90;;;;;;5057939;28;20183;-82
2022/07/09 02:48:27;;;;;;;11.00;2.60;;;14.20;99.90;;;;;;5074572;28;20224;-82
2022/07/09 02:50:53;;;;;;;4.00;2.28;;;14.20;99.90;;;;;;5079145;28;20184;-82
2022/07/09 02:53:20;;;;;;;4.20;2.92;;;14.20;99.90;;;;;;5079619;28;20202;-83
2022/07/09 02:55:45;;;;;;;4.25;3.03;;;14.20;99.90;;;;;;5048877;28;20188;-83
2022/07/09 02:58:12;;;;;;;3.47;2.50;;;14.10;99.90;;;;;;5055392;28;20190;-82
2022/07/09 03:00:41;;;;;;;3.13;2.38;;;14.10;99.90;;;;;;5054784;28;20203;-82
2022/07/09 03:03:07;;;;;;;3.75;2.67;;;14.10;99.90;;;;;;5055207;28;20180;-82
2022/07/09 03:05:33;;;;;;;3.72;2.55;;;14.10;99.90;;;;;;5054830;28;20207;-82
2022/07/09 03:07:59;;;;;;;5.05;2.80;;;14.10;99.90;;;;;;5054226;28;20626;-82
2022/07/09 03:10:25;;;;;;;6.45;3.00;;;14.00;99.90;;;;;;5054225;28;20207;-82
2022/07/09 03:12:51;;;;;;;6.20;3.53;;;14.00;99.90;;;;;;5054015;28;20187;-82
2022/07/09 03:15:17;;;;;;;6.15;3.20;;;14.10;99.90;;;;;;5054314;28;20176;-82
2022/07/09 03:17:47;;;;;;;4.63;3.33;;;14.00;99.90;;;;;;5054358;28;20180;-85
2022/07/09 03:20:13;;;;;;;7.00;3.65;;;13.90;99.90;;;;;;5054242;28;20210;-82
2022/07/09 03:22:40;;;;;;;5.25;3.10;;;14.00;99.90;;;;;;5053829;28;20180;-82
2022/07/09 03:25:07;;;;;;;5.72;3.92;;;14.00;99.90;;;;;;5053558;28;20255;-82
2022/07/09 03:27:33;;;;;;;9.10;3.60;;;14.00;99.90;;;;;;5036298;28;20180;-81
2022/07/09 03:29:59;;;;;;;6.03;3.70;;;14.00;99.90;;;;;;5053716;28;20187;-83
2022/07/09 03:32:25;;;;;;;5.80;3.65;;;14.00;99.90;;;;;;5054051;28;20235;-82
2022/07/09 03:34:52;;;;;;;9.60;4.00;;;14.00;99.90;;;;;;5053836;28;20191;-82
2022/07/09 03:37:18;;;;;;;6.00;4.15;;;13.90;99.90;;;;;;5053832;28;20586;-83
2022/07/09 03:39:44;;;;;;;6.07;4.22;;;13.90;99.90;;;;;;5053854;28;20211;-83
2022/07/09 03:42:10;;;;;;;5.28;4.15;;;13.90;99.90;;;;;;5053848;28;20187;-83
2022/07/09 03:44:36;;;;;;;7.88;4.65;;;14.00;99.90;;;;;;5053919;28;20214;-83
2022/07/09 03:47:02;;;;;;;6.85;4.47;;;14.00;99.90;;;;;;5053663;28;20212;-83
2022/07/09 03:49:28;;;;;;;8.50;4.85;;;14.00;99.90;;;;;;5053705;28;20183;-83
2022/07/09 03:51:54;;;;;;;7.28;3.95;;;14.00;99.90;;;;;;5053300;28;20194;-83
2022/07/09 03:54:19;;;;;;;7.28;4.30;;;14.00;99.90;;;;;;5053721;28;20659;-83
2022/07/09 03:56:45;;;;;;;5.60;3.72;;;14.10;99.90;;;;;;5053571;28;20314;-83
2022/07/09 03:59:10;;;;;;;8.35;4.47;;;14.10;99.90;;;;;;5035859;28;20183;-83
2022/07/09 04:01:37;;;;;;;6.35;3.88;;;14.10;99.90;;;;;;5053949;28;20214;-84
2022/07/09 04:04:03;;;;;;;5.30;3.55;;;14.10;99.90;;;;;;5053852;28;20172;-83
2022/07/09 04:06:29;;;;;;;5.53;3.10;;;14.10;99.90;;;;;;5054547;28;20172;-83
2022/07/09 04:08:55;;;;;;;4.47;3.30;;;14.20;99.90;;;;;;5053578;28;20180;-83
2022/07/09 04:11:21;;;;;;;5.70;3.55;;;14.30;99.90;;;;;;5054549;28;20672;-83
2022/07/09 04:13:47;;;;;;;7.32;3.55;;;14.30;99.90;;;;;;5053981;28;20183;-83
2022/07/09 04:16:12;;;;;;;6.13;3.58;;;14.40;99.90;;;;;;5053271;28;20183;-83
2022/07/09 04:18:39;;;;;;;8.02;3.42;;;14.50;99.90;;;;;;5053507;28;20255;-82
2022/07/09 04:21:04;;;;;;;5.57;3.28;;;14.60;99.90;;;;;;5053032;28;20214;-83
2022/07/09 04:23:30;;;;;;;4.15;2.90;;;14.70;99.90;;;;;;5053680;28;20227;-83
2022/07/09 04:25:55;;;;;;;5.88;3.35;;;14.70;99.90;;;;;;5053655;28;20179;-84
2022/07/09 04:28:21;;;;;;;4.22;3.25;;;14.80;99.90;;;;;;5053391;28;20186;-83
2022/07/09 04:30:47;;;;;;;3.70;2.92;;;14.80;99.90;;;;;;5054925;28;20184;-82
2022/07/09 04:33:13;;;;;;;6.90;3.10;;;14.90;99.90;;;;;;5054835;28;20180;-83
2022/07/09 04:35:39;;;;;;;3.90;2.85;;;15.00;99.90;;;;;;5053413;28;20179;-83
2022/07/09 04:38:05;;;;;;;4.70;3.05;;;15.00;99.90;;;;;;5053756;28;20179;-83
2022/07/09 04:40:30;;;;;;;4.45;2.63;;;15.10;99.90;;;;;;5056913;28;20207;-83
2022/07/09 04:42:56;;;;;;;3.42;2.63;;;15.10;99.90;;;;;;5059583;28;20183;-83
2022/07/09 04:45:22;;;;;;;3.90;2.80;;;15.20;99.90;;;;;;5057512;28;20176;-83
2022/07/09 04:47:48;;;;;;;2.50;2.22;;;15.30;99.90;;;;;;5057360;28;20707;-82
2022/07/09 04:50:13;;;;;;;3.65;1.92;;;15.30;99.90;;;;;;5056907;28;20633;-82
2022/07/09 04:52:40;;;;;;;2.53;2.22;;;15.50;99.90;;;;;;5056954;28;20199;-82
2022/07/09 04:55:06;;;;;;;2.42;1.65;;;15.50;99.90;;;;;;5057002;28;20625;-82
2022/07/09 04:57:32;;;;;;;3.28;2.33;;;15.60;99.90;;;;;;5057011;28;20633;-82
2022/07/09 05:00:01;;;;;;;3.78;2.17;;;15.60;99.90;;;;;;5038569;28;20230;-83
2022/07/09 05:02:27;;;;;;;2.55;1.70;;;15.70;99.90;;;;;;5039184;28;20275;-82
2022/07/09 05:04:53;;;;;;;4.90;2.22;;;15.60;99.90;;;;;;5056857;28;20255;-81
2022/07/09 05:07:18;;;;;;;2.95;1.40;;;15.80;99.90;;;;;;5039071;28;20179;-81
2022/07/09 05:09:44;;;;;;;2.90;1.25;;;15.80;99.90;;;;;;5055649;28;20171;-82
2022/07/09 05:12:10;;;;;;;4.85;1.45;;;16.00;99.90;;;;;;5039045;28;20629;-82
2022/07/09 05:14:37;;;;;;;2.05;1.63;;;16.10;99.90;;;;;;5056605;28;20184;-81
2022/07/09 05:17:03;;;;;;;5.22;1.52;;;16.10;99.90;;;;;;5056587;28;20192;-81
2022/07/09 05:19:29;;;;;;;1.70;1.60;;;16.10;99.90;;;;;;5038657;28;20224;-82
2022/07/09 05:21:54;;;;;;;3.10;1.92;;;16.00;99.90;;;;;;5056725;28;20187;-81
2022/07/09 05:24:20;;;;;;;1.95;1.20;;;16.10;99.90;;;;;;5056292;28;20239;-81
2022/07/09 05:26:45;;;;;;;1.73;1.35;;;16.20;99.90;;;;;;5038820;28;20589;-82
2022/07/09 05:29:11;;;;;;;1.67;1.20;;;16.30;99.90;;;;;;5056352;28;20195;-81
2022/07/09 05:31:38;;;;;;;3.08;1.73;;;16.40;99.90;;;;;;5022219;28;20184;-82
2022/07/09 05:34:04;;;;;;;1.70;1.10;;;16.40;99.90;;;;;;5055634;28;20542;-82
2022/07/09 05:36:30;;;;;;;1.85;1.30;;;16.50;99.90;;;;;;5055749;28;20175;-81
2022/07/09 05:38:57;;;;;;;1.55;1.30;;;16.60;99.90;;;;;;5055210;28;20195;-82
2022/07/09 05:41:22;;;;;;;2.00;1.30;;;16.60;99.90;;;;;;5055727;28;20327;-81
2022/07/09 05:43:48;;;;;;;1.33;0.95;;;16.80;99.90;;;;;;5055683;28;20275;-82
2022/07/09 05:46:14;;;;;;;1.52;1.02;;;16.90;99.90;;;;;;5055069;28;20172;-82
2022/07/09 05:48:39;;;;;;;1.45;1.10;;;17.00;99.90;;;;;;5055651;28;20261;-82
2022/07/09 05:51:05;;;;;;;1.30;0.70;;;17.20;99.90;;;;;;5054886;28;20190;-83
2022/07/09 05:53:31;;;;;;;1.05;0.80;;;17.30;99.90;;;;;;5048655;28;20688;-81
2022/07/09 05:55:57;;;;;;;0.85;0.77;;;17.30;99.90;;;;;;5043090;28;20199;-84
2022/07/09 05:58:22;;;;;;;2.72;0.80;;;17.20;99.90;;;;;;5045602;28;20180;-82
2022/07/09 06:00:48;;;;;;;1.17;0.75;;;17.20;99.90;;;;;;5025923;28;20516;-82
2022/07/09 06:03:13;;;;;;;1.58;0.80;;;17.20;99.90;;;;;;5041759;28;20541;-82
2022/07/09 06:05:39;;;;;;;2.97;1.38;;;17.20;99.90;;;;;;5042730;28;20181;-81
2022/07/09 06:08:05;;;;;;;1.42;1.10;;;17.30;99.90;;;;;;5044181;28;20184;-82
2022/07/09 06:10:30;;;;;;;0.93;0.70;;;17.40;99.90;;;;;;5044193;28;20187;-81
2022/07/09 06:12:56;;;;;;;2.15;1.25;;;17.50;99.90;;;;;;5039871;28;20188;-81
2022/07/09 06:15:22;;;;;;;1.55;1.00;;;17.70;99.90;;;;;;5027696;28;20185;-82
2022/07/09 06:17:50;;;;;;;2.47;0.80;;;17.80;99.90;;;;;;5045261;28;20245;-82
2022/07/09 06:20:16;;;;;;;1.17;0.70;;;17.90;99.90;;;;;;5044742;28;20688;-83
2022/07/09 06:22:42;;;;;;;1.38;0.80;;;18.10;99.90;;;;;;5042585;28;20204;-81
2022/07/09 06:25:08;;;;;;;1.88;1.27;;;18.10;99.90;;;;;;5042827;28;20289;-82
2022/07/09 06:27:34;;;;;;;4.28;0.80;;;18.20;99.90;;;;;;5039134;28;20184;-83
2022/07/09 06:30:00;;;;;;;2.67;0.80;;;18.30;99.90;;;;;;5041788;28;20184;-82
2022/07/09 06:32:26;;;;;;;1.35;0.93;;;18.20;99.90;;;;;;5041644;28;20570;-82
2022/07/09 06:34:52;;;;;;;2.50;1.50;;;18.20;99.90;;;;;;5035104;28;20188;-82
2022/07/09 06:37:17;;;;;;;1.88;0.80;;;18.20;99.90;;;;;;5047177;28;20539;-82
2022/07/09 06:39:46;;;;;;;0.90;0.80;;;18.30;99.90;;;;;;5048027;28;20192;-82
2022/07/09 06:42:16;;;;;;;1.95;0.90;;;18.30;99.90;;;;;;5017448;28;20554;-82
2022/07/09 06:44:43;;;;;;;0.93;0.77;;;18.30;99.90;;;;;;5040448;28;20188;-81
2022/07/09 06:47:09;;;;;;;5.07;1.10;;;18.20;99.90;;;;;;5046935;28;20407;-84
2022/07/09 06:49:35;;;;;;;1.23;1.13;;;18.20;99.90;;;;;;5047542;28;20284;-81
2022/07/09 06:52:02;;;;;;;1.33;1.10;;;18.20;99.90;;;;;;5034553;28;20283;-83
2022/07/09 06:54:28;;;;;;;3.50;1.60;;;18.20;99.90;;;;;;5046707;28;20184;-82
2022/07/09 06:56:53;;;;;;;1.52;1.20;;;18.00;99.90;;;;;;5048186;28;20187;-82
2022/07/09 06:59:21;;;;;;;4.75;1.50;;;17.90;99.90;;;;;;5042484;28;20245;-81
2022/07/09 07:01:47;;;;;;;3.63;1.35;;;18.00;99.90;;;;;;5050979;28;20212;-81
2022/07/09 07:04:14;;;;;;;2.40;1.77;;;17.90;99.90;;;;;;5033260;28;20671;-80
2022/07/09 07:06:40;;;;;;;4.60;1.67;;;17.90;99.90;;;;;;5031473;28;20234;-81
2022/07/09 07:09:06;;;;;;;1.13;1.00;;;17.90;99.90;;;;;;5047702;28;20268;-81
2022/07/09 07:11:32;;;;;;;2.88;1.73;;;17.80;99.90;;;;;;5051292;28;20298;-81
2022/07/09 07:13:57;;;;;;;2.45;2.00;;;17.80;99.90;;;;;;5051212;28;20287;-80
2022/07/09 07:16:23;;;;;;;2.75;1.60;;;17.90;99.90;;;;;;5052416;28;20192;-82
2022/07/09 07:18:48;;;;;;;2.65;1.30;;;17.90;99.90;;;;;;5041121;28;20239;-81
2022/07/09 07:21:14;;;;;;;2.00;1.30;;;17.80;99.90;;;;;;5032595;28;20208;-84
2022/07/09 07:23:40;;;;;;;1.75;1.40;;;17.80;99.90;;;;;;5031625;28;20231;-80
2022/07/09 07:26:05;;;;;;;2.13;1.55;;;17.80;99.90;;;;;;5046142;28;20180;-81
2022/07/09 07:28:31;;;;;;;2.47;1.27;;;17.80;99.90;;;;;;5050894;28;20188;-81
2022/07/09 07:30:56;;;;;;;1.90;1.60;;;17.80;99.90;;;;;;5052560;28;20180;-83
2022/07/09 07:33:22;;;;;;;2.63;1.45;;;17.80;99.90;;;;;;5042901;28;20180;-81
2022/07/09 07:35:48;;;;;;;3.30;1.30;;;17.80;99.90;;;;;;5044283;28;20194;-82
2022/07/09 07:38:13;;;;;;;2.60;1.60;;;17.90;99.90;;;;;;5024126;28;20183;-82
2022/07/09 07:40:40;;;;;;;1.17;1.08;;;18.20;99.90;;;;;;5050340;28;20219;-82
2022/07/09 07:43:05;;;;;;;2.15;1.38;;;18.30;99.90;;;;;;5051303;28;20184;-81
2022/07/09 07:45:31;;;;;;;1.42;1.10;;;18.50;99.90;;;;;;5048946;28;20582;-82
2022/07/09 07:47:57;;;;;;;1.42;1.10;;;18.50;99.90;;;;;;5052407;28;20191;-83
2022/07/09 07:50:23;;;;;;;1.30;0.98;;;18.60;99.90;;;;;;5051770;28;20775;-81
2022/07/09 07:52:49;;;;;;;2.90;1.05;;;18.60;99.90;;;;;;5033452;28;20210;-82
2022/07/09 07:55:15;;;;;;;0.77;0.70;;;18.70;99.90;;;;;;5034180;28;20225;-82
2022/07/09 07:57:41;;;;;;;0.70;0.70;;;18.90;99.90;;;;;;5051880;28;20192;-83
2022/07/09 08:00:08;;;;;;;1.33;1.23;;;19.20;99.90;;;;;;5034870;28;20212;-82
2022/07/09 08:02:37;;;;;;;1.35;1.02;;;19.30;99.90;;;;;;5052660;28;20602;-81
2022/07/09 08:05:03;;;;;;;0.95;0.80;;;19.50;99.90;;;;;;5047802;28;20190;-81
2022/07/09 08:07:28;;;;;;;1.73;1.27;;;19.60;99.90;;;;;;5053014;28;20176;-83
2022/07/09 08:09:54;;;;;;;1.75;1.08;;;19.70;99.90;;;;;;5034914;28;20207;-82
2022/07/09 08:12:19;;;;;;;2.00;1.00;;;19.90;99.90;;;;;;5053998;28;20188;-84
2022/07/09 08:14:45;;;;;;;1.27;0.90;;;19.80;99.90;;;;;;5054247;28;20180;-82
2022/07/09 08:17:11;;;;;;;1.17;0.90;;;19.80;99.90;;;;;;5037706;28;20188;-82
2022/07/09 08:19:37;;;;;;;1.67;0.93;;;19.80;99.90;;;;;;5051633;28;20180;-82
2022/07/09 08:22:03;;;;;;;0.68;0.68;;;19.60;99.90;;;;;;5033921;28;20633;-80
2022/07/09 08:24:28;;;;;;;1.30;0.88;;;19.60;99.90;;;;;;5034512;28;20231;-82
2022/07/09 08:26:54;;;;;;;1.15;0.98;;;19.70;99.90;;;;;;5046566;28;20245;-82
2022/07/09 08:29:21;;;;;;;1.50;0.80;;;19.60;99.90;;;;;;5050858;28;20263;-81
2022/07/09 08:31:49;;;;;;;1.00;0.80;;;19.60;99.90;;;;;;5032655;28;20176;-82
2022/07/09 08:34:15;;;;;;;0.50;0.50;;;19.50;99.90;;;;;;5044644;28;20195;-81
2022/07/09 08:36:40;;;;;;;0.50;0.50;;;19.70;99.90;;;;;;5036646;28;20196;-81
2022/07/09 08:39:06;;;;;;;0.70;0.70;;;19.70;99.90;;;;;;5049723;28;20198;-81
2022/07/09 08:41:32;;;;;;;0.60;0.60;;;19.70;99.90;;;;;;5063289;28;20200;-85
2022/07/09 08:43:57;;;;;;;1.77;0.50;;;19.80;99.90;;;;;;5057199;28;20187;-83
2022/07/09 08:46:23;;;;;;;1.88;0.70;;;19.90;99.90;;;;;;5056567;28;20178;-86
2022/07/09 08:48:49;;;;;;;1.27;0.77;;;20.00;99.90;;;;;;5067880;28;20244;-84
2022/07/09 08:51:15;;;;;;;0.70;0.70;;;20.00;99.90;;;;;;5047298;28;20214;-86
2022/07/09 08:53:43;;;;;;;5.28;0.90;;;20.30;99.90;;;;;;5032998;28;20200;-82
2022/07/09 08:56:09;;;;;;;3.38;0.88;;;20.50;99.90;;;;;;5064771;28;20175;-85
2022/07/09 08:58:35;;;;;;;1.80;1.13;;;20.70;99.90;;;;;;5070128;28;20192;-81
2022/07/09 09:01:01;;;;;;;1.40;0.82;;;20.50;99.90;;;;;;5058432;28;20196;-82
2022/07/09 09:03:27;;;;;;;1.35;1.13;;;20.50;99.90;;;;;;5057372;28;20197;-82
2022/07/09 09:06:04;;;;;;;0.88;0.77;;;20.30;99.90;;;;;;5051785;28;20180;-80
2022/07/09 09:08:35;;;;;;;0.75;0.75;;;20.40;99.90;;;;;;5051744;28;20221;-82
2022/07/09 09:11:02;;;;;;;1.40;1.05;;;20.40;99.90;;;;;;5051689;28;20229;-84
2022/07/09 09:13:27;;;;;;;0.80;0.80;;;20.30;99.90;;;;;;5046593;28;20199;-83
2022/07/09 09:16:06;;;;;;;1.88;0.93;;;20.30;99.90;;;;;;5050560;28;20184;-81
2022/07/09 09:18:35;;;;;;;4.03;1.23;;;20.40;99.90;;;;;;5044074;28;20179;-82
2022/07/09 09:21:05;;;;;;;1.20;0.90;;;20.50;99.90;;;;;;5039992;28;20204;-81
2022/07/09 09:23:39;;;;;;;1.08;0.90;;;20.70;99.90;;;;;;5048903;28;20290;-82
2022/07/09 09:26:15;;;;;;;1.98;1.10;;;20.70;99.90;;;;;;5050072;28;20233;-84
2022/07/09 09:28:52;;;;;;;1.02;0.75;;;20.60;99.90;;;;;;5054374;28;20188;-83
2022/07/09 09:31:28;;;;;;;1.05;0.95;;;20.40;99.90;;;;;;5051858;28;20184;-84
2022/07/09 09:33:56;;;;;;;1.02;0.80;;;20.10;99.90;;;;;;5064219;28;20266;-84
2022/07/09 09:36:33;;;;;;;1.23;0.82;;;19.90;99.90;;;;;;5070715;28;20168;-83
2022/07/09 09:39:24;;;;;;;2.25;0.93;;;20.10;99.90;;;;;;5061873;28;20273;-83
2022/07/09 09:41:57;;;;;;;2.78;0.80;;;20.30;99.90;;;;;;5062981;28;20219;-83
2022/07/09 09:44:40;;;;;;;3.50;0.88;;;20.60;99.90;;;;;;5064490;28;20237;-82
2022/07/09 09:47:07;;;;;;;1.65;1.02;;;20.90;99.90;;;;;;5067722;28;20190;-83
2022/07/09 09:49:34;;;;;;;0.95;0.82;;;21.20;99.90;;;;;;5062673;28;20195;-84
2022/07/09 09:52:05;;;;;;;1.48;0.77;;;21.50;99.90;;;;;;5053493;28;20183;-83
2022/07/09 09:54:36;;;;;;;1.58;0.80;;;21.30;99.90;;;;;;5054817;28;20184;-84
2022/07/09 09:57:09;;;;;;;1.25;0.73;;;21.30;99.90;;;;;;5053223;28;20193;-83
2022/07/09 09:59:40;;;;;;;2.38;1.02;;;21.30;99.90;;;;;;5043587;28;20188;-84
2022/07/09 10:02:07;;;;;;;1.48;0.82;;;21.20;99.90;;;;;;5053653;28;20195;-84
2022/07/09 10:04:32;;;;;;;1.10;0.80;;;21.10;99.90;;;;;;5053000;28;20661;-84
2022/07/09 10:06:58;;;;;;;0.90;0.70;;;21.20;99.90;;;;;;5035863;28;20250;-82
2022/07/09 10:09:24;;;;;;;1.17;0.73;;;21.20;99.90;;;;;;5054386;28;20233;-84
2022/07/09 10:11:50;;;;;;;1.05;0.90;;;21.00;99.90;;;;;;5041298;28;20196;-82
2022/07/09 10:14:34;;;;;;;0.77;0.77;;;20.90;99.90;;;;;;5052956;28;20538;-83
2022/07/09 10:17:14;;;;;;;1.95;1.10;;;20.70;99.90;;;;;;5054742;28;20187;-82
2022/07/09 10:19:57;;;;;;;1.63;0.85;;;20.40;99.90;;;;;;5054569;28;20203;-83
2022/07/09 10:22:41;;;;;;;2.45;1.15;;;20.20;99.90;;;;;;5054358;28;20191;-84
2022/07/09 10:25:08;;;;;;;1.00;0.90;;;20.00;99.90;;;;;;5054590;28;20254;-83
2022/07/09 10:27:49;;;;;;;0.90;0.88;;;19.70;99.90;;;;;;5054217;28;20194;-85
2022/07/09 10:30:26;;;;;;;1.40;1.15;;;19.50;99.90;;;;;;5054022;28;20249;-83
2022/07/09 10:33:10;;;;;;;2.70;1.00;;;19.40;99.90;;;;;;5035605;28;20513;-83
2022/07/09 10:35:44;;;;;;;0.90;0.90;;;19.20;99.90;;;;;;5041451;28;20732;-85
2022/07/09 10:38:11;;;;;;;3.90;1.25;;;19.20;99.90;;;;;;5029550;28;20264;-84
2022/07/09 10:40:55;;;;;;;1.25;0.82;;;19.20;99.90;;;;;;5032309;28;20212;-87
2022/07/09 10:43:36;;;;;;;1.55;1.10;;;19.30;99.90;;;;;;5055854;28;20210;-86
2022/07/09 10:46:12;;;;;;;0.60;0.60;;;19.30;99.90;;;;;;5051836;28;20192;-86
2022/07/09 10:48:38;;;;;;;0.75;0.75;;;19.80;99.90;;;;;;5058228;28;20190;-84
2022/07/09 10:51:04;;;;;;;1.92;1.00;;;20.10;99.90;;;;;;5054816;28;20579;-84
2022/07/09 10:53:30;;;;;;;1.50;1.05;;;20.10;99.90;;;;;;5033806;28;20192;-85
2022/07/09 10:55:55;;;;;;;2.95;1.10;;;20.50;99.90;;;;;;5003797;28;20646;-83
2022/07/09 10:58:24;;;;;;;1.30;1.00;;;20.50;99.90;;;;;;5042709;28;20186;-85
2022/07/09 11:00:56;;;;;;;1.20;1.10;;;20.40;99.90;;;;;;5053270;28;20686;-84
2022/07/09 11:03:26;;;;;;;2.10;1.10;;;20.10;99.90;;;;;;5034968;28;20187;-84
2022/07/09 11:05:52;;;;;;;2.92;1.15;;;20.00;99.90;;;;;;5035351;28;20188;-83
2022/07/09 11:08:17;;;;;;;0.80;0.80;;;19.90;99.90;;;;;;5053331;28;20191;-83
2022/07/09 11:10:43;;;;;;;1.15;0.85;;;19.80;99.90;;;;;;5051577;28;20211;-84
2022/07/09 11:13:09;;;;;;;1.65;1.00;;;19.70;99.90;;;;;;5053578;28;20267;-83
2022/07/09 11:15:37;;;;;;;1.02;0.82;;;19.60;99.90;;;;;;5052184;28;20679;-83
2022/07/09 11:18:04;;;;;;;1.52;0.70;;;19.50;99.90;;;;;;5053531;28;20191;-84
2022/07/09 11:20:32;;;;;;;0.80;0.70;;;19.50;99.90;;;;;;5034041;28;20342;-86
2022/07/09 11:22:59;;;;;;;2.35;0.90;;;19.50;99.90;;;;;;5049907;28;20298;-83
2022/07/09 11:25:26;;;;;;;0.70;0.70;;;19.50;99.90;;;;;;5034918;28;20195;-84
2022/07/09 11:28:00;;;;;;;0.80;0.80;;;19.60;99.90;;;;;;5035170;28;20184;-84
2022/07/09 11:30:27;;;;;;;1.42;0.98;;;19.80;99.90;;;;;;5052894;28;20191;-83
2022/07/09 11:32:53;;;;;;;1.60;0.80;;;20.10;99.90;;;;;;5050030;28;20184;-83
2022/07/09 11:35:29;;;;;;;0.80;0.80;;;20.30;99.90;;;;;;5027741;28;20180;-81
2022/07/09 11:38:08;;;;;;;1.38;0.85;;;20.40;99.90;;;;;;5039702;28;20278;-80
2022/07/09 11:40:33;;;;;;;0.95;0.90;;;20.40;99.90;;;;;;5033633;28;20203;-81
2022/07/09 11:42:59;;;;;;;1.42;1.00;;;20.50;99.90;;;;;;5051525;28;20183;-82
2022/07/09 11:45:29;;;;;;;1.10;1.00;;;20.40;99.90;;;;;;5050881;28;20656;-83
2022/07/09 11:48:06;;;;;;;0.70;0.70;;;20.30;99.90;;;;;;5053391;28;20194;-83
2022/07/09 11:50:32;;;;;;;1.25;1.15;;;20.30;99.90;;;;;;5052367;28;20183;-83
2022/07/09 11:52:58;;;;;;;2.25;0.80;;;20.30;99.90;;;;;;5049790;28;20180;-82
2022/07/09 11:55:31;;;;;;;1.80;1.20;;;20.20;99.90;;;;;;5034601;28;20218;-82
2022/07/09 11:58:06;;;;;;;0.90;0.80;;;20.30;99.90;;;;;;5024686;28;20189;-84
2022/07/09 12:00:40;;;;;;;0.80;0.80;;;20.30;99.90;;;;;;5031671;28;20218;-83
2022/07/09 12:03:06;;;;;;;0.80;0.80;;;20.30;99.90;;;;;;5044937;28;20198;-83
2022/07/09 12:05:35;;;;;;;0.60;0.60;;;20.40;99.90;;;;;;5033856;28;20216;-81
2022/07/09 12:08:05;;;;;;;1.10;0.63;;;20.70;99.90;;;;;;5049871;28;20253;-82
2022/07/09 12:10:34;;;;;;;0.80;0.57;;;21.00;99.90;;;;;;5050953;28;20203;-83
2022/07/09 12:13:00;;;;;;;1.25;0.68;;;21.30;99.90;;;;;;5042562;28;20179;-82
2022/07/09 12:15:27;;;;;;;1.15;1.02;;;21.40;99.90;;;;;;5050840;28;20188;-83
2022/07/09 12:17:55;;;;;;;0.88;0.57;;;21.50;99.90;;;;;;5032347;28;20182;-83
2022/07/09 12:20:26;;;;;;;0.43;0.40;;;21.60;99.90;;;;;;5043154;28;20273;-82
2022/07/09 12:22:52;;;;;;;0.52;0.52;;;21.70;99.90;;;;;;5037781;28;20758;-84
2022/07/09 12:25:21;;;;;;;0.38;0.38;;;21.70;99.90;;;;;;5032826;28;20298;-82
2022/07/09 12:27:48;;;;;;;0.85;0.50;;;21.80;99.90;;;;;;5049105;28;20690;-83
2022/07/09 12:30:14;;;;;;;0.60;0.60;;;21.90;99.90;;;;;;5050670;28;20179;-82
2022/07/09 12:32:42;;;;;;;0.30;0.30;;;22.00;99.90;;;;;;5045007;28;20193;-84
2022/07/09 12:35:09;;;;;;;2.25;0.80;;;22.30;99.90;;;;;;5024106;28;20187;-84
2022/07/09 12:37:35;;;;;;;0.45;0.45;;;22.50;99.90;;;;;;5047581;28;20187;-84
2022/07/09 12:40:01;;;;;;;0.50;0.50;;;22.40;99.90;;;;;;5043159;28;20234;-82
2022/07/09 12:42:27;;;;;;;0.70;0.57;;;22.00;99.90;;;;;;5009973;28;20180;-83
2022/07/09 12:44:53;;;;;;;0.40;0.40;;;21.90;99.90;;;;;;5020124;28;20658;-83
2022/07/09 12:47:19;;;;;;;0.65;0.40;;;21.90;99.90;;;;;;5024100;28;20234;-82
2022/07/09 12:49:44;;;;;;;0.73;0.50;;;22.00;99.90;;;;;;5056229;28;20272;-82